METAR UND TAF INFORMATION
EGNT 161020Z 28009KT 240V300 9999 FEW025 17/10 Q1016

 FLUGHAFENKARTE

 RUNWAY INFORMATION
Runway 07 Runway length 7642 ft Runway width 151 ft
Runway elevation 263 ft Runway displaced threshold 394 ft Runway heading 65
Runway 25 Runway length 7642 ft Runway width 151 ft
Runway elevation 239 ft Runway displaced threshold 446 ft Runway heading 245

 AIRPORT FREQUENCIES
Type APP Name APP Frequency 124.375 MHZ
Type ATIS Name ATIS Frequency 118.375 MHZ
Type GND Name GND Frequency 121.725 MHZ
Type ILS Name Runway 07/ Frequency 111.5 MHZ
Type TWR Name TWR Frequency 119.7 MHZ

 AIRPORT NEAR NAVIGATION AIDS
Type VOR-DME Name Newcastle Frequency 114250 KHZ